createdAt,value
2017-10-30T00:01:06.507Z,79.65
2017-10-30T00:03:32.272Z,79.63
2017-10-30T00:05:58.077Z,79.49
2017-10-30T00:08:23.835Z,79.51
2017-10-30T00:10:49.592Z,79.42
2017-10-30T00:13:15.344Z,79.60
2017-10-30T00:15:41.127Z,79.93
2017-10-30T00:18:06.883Z,80.15
2017-10-30T00:20:32.639Z,80.23
2017-10-30T00:22:58.416Z,80.39
2017-10-30T00:25:24.187Z,80.44
2017-10-30T00:27:49.965Z,80.50
2017-10-30T00:30:15.740Z,80.55
2017-10-30T00:32:41.527Z,80.47
2017-10-30T00:35:07.292Z,80.27
2017-10-30T00:37:33.058Z,80.23
2017-10-30T00:39:58.849Z,80.27
2017-10-30T00:42:24.611Z,80.11
2017-10-30T00:44:50.372Z,80.40
2017-10-30T00:47:16.156Z,79.82
2017-10-30T00:49:41.925Z,80.05
2017-10-30T00:52:07.672Z,79.62
2017-10-30T00:54:33.436Z,79.84
2017-10-30T00:56:59.207Z,79.70
2017-10-30T00:59:24.967Z,79.35
2017-10-30T01:01:50.740Z,79.32
2017-10-30T01:04:16.527Z,79.40
2017-10-30T01:06:42.284Z,79.51
2017-10-30T01:09:08.020Z,79.29
2017-10-30T01:11:33.800Z,79.50
2017-10-30T01:13:59.564Z,79.33
2017-10-30T01:16:25.348Z,79.50
2017-10-30T01:18:51.183Z,79.27
2017-10-30T01:21:16.941Z,79.26
2017-10-30T01:23:42.729Z,79.45
2017-10-30T01:26:08.485Z,79.73
2017-10-30T01:28:34.272Z,79.92
2017-10-30T01:31:00.060Z,79.91
2017-10-30T01:33:25.886Z,79.87
2017-10-30T01:35:51.650Z,79.80
2017-10-30T01:38:17.413Z,79.29
2017-10-30T01:40:43.182Z,79.46
2017-10-30T01:43:08.952Z,78.97
2017-10-30T01:45:34.718Z,79.08
2017-10-30T01:48:00.564Z,79.61
2017-10-30T01:50:26.341Z,79.93
2017-10-30T01:52:52.099Z,79.66
2017-10-30T01:55:17.889Z,79.62
2017-10-30T01:57:43.694Z,79.87
2017-10-30T02:00:09.472Z,80.14
2017-10-30T02:02:35.304Z,79.90
2017-10-30T02:05:01.056Z,79.58
2017-10-30T02:07:26.818Z,79.62
2017-10-30T02:09:52.604Z,79.73
2017-10-30T02:12:18.380Z,79.92
2017-10-30T02:14:44.173Z,80.18
2017-10-30T02:17:09.962Z,80.58
2017-10-30T02:19:35.747Z,80.84
2017-10-30T02:22:01.524Z,80.86
2017-10-30T02:24:27.307Z,80.74
2017-10-30T02:26:53.057Z,80.23
2017-10-30T02:29:18.869Z,80.42
2017-10-30T02:31:44.642Z,80.72
2017-10-30T02:34:10.398Z,80.76
2017-10-30T02:36:36.190Z,81.02
2017-10-30T02:39:01.978Z,81.34
2017-10-30T02:41:27.806Z,81.61
2017-10-30T02:43:53.591Z,81.41
2017-10-30T02:46:19.376Z,80.88
2017-10-30T02:48:45.184Z,80.75
2017-10-30T02:51:10.950Z,80.87
2017-10-30T02:53:36.751Z,80.84
2017-10-30T02:56:02.504Z,80.95
2017-10-30T02:58:28.320Z,81.87
2017-10-30T03:00:54.134Z,82.32
2017-10-30T03:03:19.909Z,82.05
2017-10-30T03:05:45.704Z,81.94
2017-10-30T03:08:11.496Z,81.52
2017-10-30T03:10:37.286Z,81.06
2017-10-30T03:13:03.063Z,81.39
2017-10-30T03:15:28.846Z,81.89
2017-10-30T03:17:54.643Z,82.30
2017-10-30T03:20:20.407Z,82.13
2017-10-30T03:22:47.710Z,81.83
2017-10-30T03:25:13.718Z,81.88
2017-10-30T03:27:40.343Z,82.05
2017-10-30T03:30:06.165Z,81.67
2017-10-30T03:32:31.939Z,80.70
2017-10-30T03:34:57.736Z,80.57
2017-10-30T03:37:23.529Z,81.16
2017-10-30T03:39:49.298Z,81.25
2017-10-30T03:42:15.079Z,81.20
2017-10-30T03:44:40.891Z,80.66
2017-10-30T03:47:06.703Z,80.22
2017-10-30T03:49:32.515Z,79.80
2017-10-30T03:51:58.311Z,80.00
2017-10-30T03:54:24.083Z,80.19
2017-10-30T03:56:49.883Z,80.51
2017-10-30T03:59:15.639Z,81.01
2017-10-30T04:01:41.424Z,81.72
2017-10-30T04:04:07.227Z,82.15
2017-10-30T04:06:33.015Z,81.93
2017-10-30T04:08:58.801Z,81.65
2017-10-30T04:11:24.563Z,81.30
2017-10-30T04:13:53.496Z,81.58
2017-10-30T04:16:19.235Z,81.47
2017-10-30T04:18:44.982Z,81.47
2017-10-30T04:21:10.750Z,81.04
2017-10-30T04:23:36.513Z,81.09
2017-10-30T04:26:02.312Z,81.33
2017-10-30T04:28:28.071Z,81.74
2017-10-30T04:30:53.860Z,81.65
2017-10-30T04:33:19.639Z,81.57
2017-10-30T04:35:45.413Z,82.06
2017-10-30T04:38:11.199Z,82.20
2017-10-30T04:40:36.973Z,82.18
2017-10-30T04:43:02.731Z,82.48
2017-10-30T04:45:28.499Z,82.36
2017-10-30T04:47:54.279Z,82.44
2017-10-30T04:50:20.036Z,82.32
2017-10-30T04:52:45.801Z,82.45
2017-10-30T04:55:11.576Z,82.63
2017-10-30T04:57:37.343Z,82.71
2017-10-30T05:00:03.312Z,82.37
2017-10-30T05:02:29.091Z,82.19
2017-10-30T05:04:54.845Z,82.30
2017-10-30T05:07:20.615Z,82.26
2017-10-30T05:09:46.372Z,82.43
2017-10-30T05:12:12.122Z,82.74
2017-10-30T05:14:37.889Z,82.24
2017-10-30T05:17:03.668Z,82.06
2017-10-30T05:19:29.436Z,81.80
2017-10-30T05:21:55.221Z,81.81
2017-10-30T05:24:20.979Z,81.97
2017-10-30T05:26:46.789Z,82.13
2017-10-30T05:29:12.543Z,82.30
2017-10-30T05:31:38.314Z,82.24
2017-10-30T05:34:04.092Z,81.94
2017-10-30T05:36:29.887Z,81.70
2017-10-30T05:38:55.704Z,81.58
2017-10-30T05:41:22.117Z,81.88
2017-10-30T05:43:47.883Z,82.38
2017-10-30T05:46:13.630Z,82.71
2017-10-30T05:48:39.422Z,82.80
2017-10-30T05:51:05.215Z,83.25
2017-10-30T05:53:30.984Z,82.96
2017-10-30T05:55:56.781Z,82.56
2017-10-30T05:58:22.595Z,82.74
2017-10-30T06:00:48.384Z,83.04
2017-10-30T06:03:14.129Z,83.07
2017-10-30T06:05:39.951Z,82.74
2017-10-30T06:08:05.776Z,82.38
2017-10-30T06:10:31.543Z,82.08
2017-10-30T06:12:57.339Z,82.15
2017-10-30T06:15:23.307Z,81.98
2017-10-30T06:17:49.051Z,82.12
2017-10-30T06:20:14.842Z,82.08
2017-10-30T06:22:40.607Z,81.82
2017-10-30T06:25:06.358Z,81.49
2017-10-30T06:27:32.171Z,81.57
2017-10-30T06:29:57.971Z,81.71
2017-10-30T06:32:23.763Z,81.47
2017-10-30T06:34:49.583Z,81.78
2017-10-30T06:37:15.335Z,81.93
2017-10-30T06:39:41.123Z,81.09
2017-10-30T06:42:06.879Z,81.17
2017-10-30T06:44:32.663Z,80.27
2017-10-30T06:46:58.420Z,80.04
2017-10-30T06:49:24.188Z,79.73
2017-10-30T06:51:49.946Z,80.58
2017-10-30T06:54:15.728Z,80.64
2017-10-30T06:56:41.573Z,80.30
2017-10-30T06:59:07.316Z,80.57
2017-10-30T07:01:33.099Z,79.35
2017-10-30T07:03:58.863Z,78.98
2017-10-30T07:06:24.632Z,79.29
2017-10-30T07:08:50.412Z,79.08
2017-10-30T07:11:16.190Z,78.86
2017-10-30T07:13:41.989Z,78.76
2017-10-30T07:16:07.796Z,79.22
2017-10-30T07:18:33.564Z,79.21
2017-10-30T07:20:59.343Z,79.01
2017-10-30T07:23:25.098Z,78.35
2017-10-30T07:25:50.867Z,78.48
2017-10-30T07:28:16.656Z,78.21
2017-10-30T07:30:42.445Z,78.27
2017-10-30T07:33:08.212Z,77.18
2017-10-30T07:35:33.999Z,77.63
2017-10-30T07:37:59.751Z,77.09
2017-10-30T07:40:25.518Z,76.12
2017-10-30T07:42:51.300Z,72.14
2017-10-30T07:45:17.088Z,68.14
2017-10-30T07:47:46.808Z,65.80
2017-10-30T07:50:12.579Z,62.63
2017-10-30T07:52:38.388Z,60.11
2017-10-30T07:55:04.171Z,58.50
2017-10-30T07:57:29.952Z,59.82
2017-10-30T07:59:55.748Z,59.95
2017-10-30T08:02:21.548Z,58.52
2017-10-30T08:04:47.522Z,59.45
2017-10-30T08:07:13.396Z,58.79
2017-10-30T08:09:39.173Z,55.56
2017-10-30T08:12:04.944Z,54.81
2017-10-30T08:14:30.720Z,52.17
2017-10-30T08:16:56.552Z,51.01
2017-10-30T08:19:22.329Z,49.92
2017-10-30T08:21:48.119Z,47.29
2017-10-30T08:24:13.906Z,47.43
2017-10-30T08:26:39.692Z,46.53
2017-10-30T08:29:05.572Z,46.12
2017-10-30T08:31:31.386Z,46.89
2017-10-30T08:33:57.147Z,50.18
2017-10-30T08:36:22.947Z,52.18
2017-10-30T08:38:48.715Z,53.78
2017-10-30T08:41:14.508Z,53.52
2017-10-30T08:43:40.307Z,54.53
2017-10-30T08:46:06.074Z,56.67
2017-10-30T08:48:31.837Z,58.63
2017-10-30T08:50:57.685Z,60.31
2017-10-30T08:53:23.490Z,59.71
2017-10-30T08:55:49.288Z,59.15
2017-10-30T08:58:15.065Z,54.87
2017-10-30T09:00:40.881Z,53.60
2017-10-30T09:03:06.684Z,55.40
2017-10-30T09:05:32.458Z,58.64
2017-10-30T09:07:58.244Z,58.91
2017-10-30T09:10:24.036Z,60.00
2017-10-30T09:12:49.823Z,58.87
2017-10-30T09:15:15.583Z,54.12
2017-10-30T09:17:41.375Z,55.22
2017-10-30T09:20:07.145Z,57.33
2017-10-30T09:22:32.931Z,59.25
2017-10-30T09:24:58.748Z,60.32
2017-10-30T09:27:24.559Z,60.93
2017-10-30T09:29:50.315Z,60.47
2017-10-30T09:32:16.113Z,60.34
2017-10-30T09:34:41.916Z,60.37
2017-10-30T09:37:07.694Z,56.73
2017-10-30T09:39:33.472Z,52.51
2017-10-30T09:41:59.251Z,50.64
2017-10-30T09:44:25.052Z,50.72
2017-10-30T09:46:50.809Z,50.93
2017-10-30T09:49:16.602Z,48.53
2017-10-30T09:51:42.395Z,46.06
2017-10-30T09:54:08.168Z,45.34
2017-10-30T09:56:33.974Z,43.92
2017-10-30T09:58:59.748Z,43.57
2017-10-30T10:01:25.523Z,40.34
2017-10-30T10:03:51.347Z,39.43
2017-10-30T10:06:17.127Z,40.82
2017-10-30T10:08:42.896Z,39.21
2017-10-30T10:11:08.712Z,38.26
2017-10-30T10:13:34.582Z,36.79
2017-10-30T10:16:00.416Z,35.81
2017-10-30T10:18:26.187Z,38.12
2017-10-30T10:20:51.980Z,37.91
2017-10-30T10:23:17.759Z,37.77
2017-10-30T10:25:43.547Z,42.64
2017-10-30T10:28:09.303Z,46.34
2017-10-30T10:30:35.097Z,45.56
2017-10-30T10:33:00.890Z,44.65
2017-10-30T10:35:26.659Z,42.19
2017-10-30T10:37:52.424Z,40.14
2017-10-30T10:40:18.296Z,42.86
2017-10-30T10:42:44.079Z,42.22
2017-10-30T10:45:09.844Z,44.21
2017-10-30T10:47:35.665Z,43.36
2017-10-30T10:50:01.450Z,42.67
2017-10-30T10:52:27.261Z,39.34
2017-10-30T10:54:53.019Z,41.17
2017-10-30T10:57:18.787Z,43.64
2017-10-30T10:59:44.546Z,42.77
2017-10-30T11:02:10.348Z,40.75
2017-10-30T11:04:36.124Z,40.25
2017-10-30T11:07:01.887Z,40.31
2017-10-30T11:09:27.665Z,38.70
2017-10-30T11:11:53.455Z,40.06
2017-10-30T11:14:19.223Z,41.66
2017-10-30T11:16:45.003Z,43.01
2017-10-30T11:19:10.855Z,43.47
2017-10-30T11:21:36.653Z,42.83
2017-10-30T11:24:02.455Z,42.91
2017-10-30T11:26:28.204Z,44.84
2017-10-30T11:28:54.021Z,48.54
2017-10-30T11:31:19.791Z,48.56
2017-10-30T11:33:45.551Z,47.04
2017-10-30T11:36:11.319Z,43.85
2017-10-30T11:38:37.087Z,43.51
2017-10-30T11:41:02.899Z,44.68
2017-10-30T11:43:28.670Z,48.53
2017-10-30T11:45:54.481Z,49.42
2017-10-30T11:48:20.290Z,49.78
2017-10-30T11:50:46.059Z,51.61
2017-10-30T11:53:11.848Z,52.67
2017-10-30T11:55:37.654Z,53.18
2017-10-30T11:58:04.167Z,53.16
2017-10-30T12:00:29.945Z,52.89
2017-10-30T12:02:55.749Z,52.57
2017-10-30T12:05:21.496Z,52.40
2017-10-30T12:07:47.288Z,53.59
2017-10-30T12:10:13.044Z,53.98
2017-10-30T12:12:39.002Z,55.31
2017-10-30T12:15:04.839Z,52.10
2017-10-30T12:17:30.619Z,51.59
2017-10-30T12:19:56.410Z,51.13
2017-10-30T12:22:22.187Z,53.19
2017-10-30T12:24:47.935Z,51.93
2017-10-30T12:27:13.715Z,51.33
2017-10-30T12:29:39.496Z,52.17
2017-10-30T12:32:05.278Z,51.58
2017-10-30T12:34:31.042Z,50.60
2017-10-30T12:36:56.795Z,51.35
2017-10-30T12:39:22.624Z,50.86
2017-10-30T12:41:48.375Z,50.99
2017-10-30T12:44:14.163Z,49.44
2017-10-30T12:46:39.913Z,49.12
2017-10-30T12:49:05.699Z,47.21
2017-10-30T12:51:31.503Z,46.18
2017-10-30T12:53:57.275Z,47.53
2017-10-30T12:56:23.075Z,48.18
2017-10-30T12:58:48.875Z,47.85
2017-10-30T13:01:14.677Z,49.93
2017-10-30T13:03:40.447Z,51.22
2017-10-30T13:06:06.202Z,51.63
2017-10-30T13:08:31.983Z,51.91
2017-10-30T13:10:57.765Z,52.52
2017-10-30T13:13:23.550Z,54.30
2017-10-30T13:15:49.322Z,53.58
2017-10-30T13:18:15.095Z,51.45
2017-10-30T13:20:40.884Z,50.29
2017-10-30T13:23:06.668Z,49.27
2017-10-30T13:25:32.452Z,47.02
2017-10-30T13:27:58.239Z,48.73
2017-10-30T13:30:23.996Z,49.40
2017-10-30T13:32:49.778Z,50.28
2017-10-30T13:35:15.555Z,50.94
2017-10-30T13:37:41.319Z,51.37
2017-10-30T13:40:07.117Z,52.56
2017-10-30T13:42:32.874Z,53.39
2017-10-30T13:44:58.641Z,53.92
2017-10-30T13:47:24.416Z,54.15
2017-10-30T13:49:50.191Z,54.43
2017-10-30T13:52:15.979Z,54.64
2017-10-30T13:54:41.758Z,55.74
2017-10-30T13:57:07.528Z,56.48
2017-10-30T13:59:33.312Z,55.86
2017-10-30T14:01:59.066Z,55.80
2017-10-30T14:04:24.815Z,54.69
2017-10-30T14:06:50.588Z,54.43
2017-10-30T14:09:16.358Z,55.35
2017-10-30T14:11:42.115Z,54.08
2017-10-30T14:14:07.895Z,55.13
2017-10-30T14:16:33.670Z,53.16
2017-10-30T14:18:59.531Z,54.83
2017-10-30T14:21:25.367Z,54.95
2017-10-30T14:23:51.151Z,54.58
2017-10-30T14:26:16.984Z,55.31
2017-10-30T14:28:42.811Z,56.05
2017-10-30T14:31:08.600Z,56.64
2017-10-30T14:33:34.395Z,56.52
2017-10-30T14:36:00.174Z,57.10
2017-10-30T14:38:26.016Z,58.27
2017-10-30T14:40:51.855Z,57.94
2017-10-30T14:43:17.660Z,57.84
2017-10-30T14:45:43.504Z,55.99
2017-10-30T14:48:09.275Z,54.72
2017-10-30T14:50:35.063Z,54.18
2017-10-30T14:53:00.871Z,52.13
2017-10-30T14:55:26.649Z,50.16
2017-10-30T14:57:52.448Z,50.16
2017-10-30T15:00:19.028Z,50.29
2017-10-30T15:02:44.858Z,52.03
2017-10-30T15:05:10.631Z,51.29
2017-10-30T15:07:36.411Z,50.94
2017-10-30T15:10:02.225Z,53.25
2017-10-30T15:12:27.987Z,54.67
2017-10-30T15:14:53.779Z,56.13
2017-10-30T15:17:19.604Z,56.59
2017-10-30T15:19:45.435Z,57.82
2017-10-30T15:22:11.407Z,58.28
2017-10-30T15:24:37.214Z,58.22
2017-10-30T15:27:03.010Z,58.93
2017-10-30T15:29:28.823Z,59.96
2017-10-30T15:31:54.647Z,59.90
2017-10-30T15:34:20.413Z,60.50
2017-10-30T15:36:46.187Z,60.81
2017-10-30T15:39:11.992Z,61.13
2017-10-30T15:41:37.787Z,61.18
2017-10-30T15:44:03.559Z,61.38
2017-10-30T15:46:29.366Z,61.43
2017-10-30T15:48:55.173Z,62.49
2017-10-30T15:51:20.969Z,62.08
2017-10-30T15:53:46.775Z,61.91
2017-10-30T15:56:12.547Z,62.18
2017-10-30T15:58:38.341Z,62.76
2017-10-30T16:01:04.105Z,63.41
2017-10-30T16:03:29.896Z,63.80
2017-10-30T16:05:55.703Z,63.73
2017-10-30T16:08:21.470Z,63.96
2017-10-30T16:10:47.247Z,64.67
2017-10-30T16:13:13.035Z,65.12
2017-10-30T16:15:38.843Z,65.14
2017-10-30T16:18:04.695Z,65.28
2017-10-30T16:20:54.684Z,65.63
2017-10-30T16:23:51.689Z,65.57
2017-10-30T16:39:43.219Z,66.84
2017-10-30T16:42:32.135Z,66.91
2017-10-30T17:01:44.635Z,68.09
2017-10-30T17:04:34.590Z,68.25
2017-10-30T17:23:46.327Z,70.90
2017-10-30T17:26:35.879Z,70.84
2017-10-30T17:29:32.537Z,70.71
2017-10-30T17:48:41.326Z,72.64
2017-10-30T18:07:53.530Z,73.49
2017-10-30T18:27:28.253Z,75.09
2017-10-30T18:46:44.583Z,75.64
2017-10-30T18:49:43.343Z,75.88
2017-10-30T18:52:09.131Z,75.75
2017-10-30T19:11:45.479Z,75.98
2017-10-30T19:14:11.248Z,76.69
2017-10-30T19:17:01.015Z,76.26
2017-10-30T19:19:59.040Z,76.31
2017-10-30T19:39:20.246Z,76.66
2017-10-30T19:42:17.465Z,76.70
2017-10-30T19:45:14.491Z,76.89
2017-10-30T19:48:11.367Z,77.00
2017-10-30T19:57:48.174Z,76.90
2017-10-30T20:00:37.615Z,76.93
2017-10-30T20:03:34.579Z,76.94
2017-10-30T20:19:25.503Z,77.00
2017-10-30T20:22:14.524Z,78.13
2017-10-30T20:25:11.956Z,77.89
2017-10-30T20:44:23.326Z,78.06
2017-10-30T20:47:20.239Z,78.09
2017-10-30T20:50:18.008Z,78.31
2017-10-30T20:53:15.494Z,78.22
2017-10-30T20:56:13.212Z,77.50
2017-10-30T20:59:10.195Z,76.60
2017-10-30T21:02:06.975Z,77.35
2017-10-30T21:04:32.780Z,77.45
2017-10-30T21:07:22.375Z,77.35
2017-10-30T21:10:20.202Z,77.84
2017-10-30T21:13:17.265Z,77.91
2017-10-30T21:32:32.905Z,77.67
2017-10-30T21:35:29.759Z,77.95
2017-10-30T21:48:00.252Z,78.73
2017-10-30T21:50:49.917Z,78.99
2017-10-30T22:10:00.912Z,77.87
2017-10-30T22:12:49.871Z,78.70
2017-10-30T22:15:47.496Z,79.36
2017-10-30T22:18:44.151Z,79.45
2017-10-30T22:31:41.419Z,78.55
2017-10-30T22:34:30.695Z,78.94
2017-10-30T22:53:43.113Z,79.54
2017-10-30T22:56:32.092Z,79.65
2017-10-30T22:59:28.950Z,79.16
2017-10-30T23:15:34.085Z,79.08
2017-10-30T23:18:23.864Z,79.04
2017-10-30T23:21:21.691Z,78.68
2017-10-30T23:24:18.824Z,78.87
2017-10-30T23:27:16.711Z,79.16
2017-10-30T23:30:14.629Z,79.17
2017-10-30T23:39:23.471Z,78.81
2017-10-30T23:59:00.153Z,79.29
